createdAt,value
2023-04-11T00:00:30.392Z,11.16
2023-04-11T00:03:00.548Z,11.18
2023-04-11T00:05:28.167Z,11.15
2023-04-11T00:07:54.873Z,11.26
2023-04-11T00:10:21.665Z,11.15
2023-04-11T00:12:48.343Z,11.13
2023-04-11T00:15:16.367Z,11.19
2023-04-11T00:17:45.816Z,11.28
2023-04-11T00:20:13.328Z,11.34
2023-04-11T00:22:41.090Z,11.36
2023-04-11T00:25:08.314Z,11.31
2023-04-11T00:27:35.479Z,11.23
2023-04-11T00:30:02.448Z,11.21
2023-04-11T00:32:29.244Z,11.15
2023-04-11T00:34:56.040Z,11.04
2023-04-11T00:37:22.915Z,11.11
2023-04-11T00:39:56.212Z,11.07
2023-04-11T00:42:23.148Z,11.00
2023-04-11T00:44:51.017Z,10.93
2023-04-11T00:47:21.665Z,10.73
2023-04-11T00:49:48.721Z,10.68
2023-04-11T00:52:19.488Z,10.65
2023-04-11T00:54:46.805Z,10.80
2023-04-11T00:57:14.371Z,10.78
2023-04-11T00:59:42.975Z,10.90
2023-04-11T01:02:10.760Z,11.06
2023-04-11T01:04:37.576Z,11.19
2023-04-11T01:07:07.629Z,10.96
2023-04-11T01:09:36.381Z,10.96
2023-04-11T01:12:05.329Z,10.88
2023-04-11T01:14:32.187Z,10.96
2023-04-11T01:17:02.158Z,11.06
2023-04-11T01:19:30.071Z,10.95
2023-04-11T01:21:59.037Z,10.91
2023-04-11T01:24:26.353Z,10.96
2023-04-11T01:26:53.214Z,10.98
2023-04-11T01:29:20.682Z,10.95
2023-04-11T01:31:47.574Z,10.96
2023-04-11T01:34:15.814Z,10.95
2023-04-11T01:36:43.146Z,10.78
2023-04-11T01:39:11.790Z,10.71
2023-04-11T01:41:39.628Z,10.61
2023-04-11T01:44:06.402Z,10.61
2023-04-11T01:46:33.675Z,10.71
2023-04-11T01:49:01.732Z,10.79
2023-04-11T01:51:28.672Z,10.81
2023-04-11T01:53:57.763Z,10.69
2023-04-11T01:56:24.598Z,10.58
2023-04-11T01:58:51.396Z,10.69
2023-04-11T02:01:19.821Z,10.68
2023-04-11T02:03:46.785Z,10.72
2023-04-11T02:06:15.636Z,10.63
2023-04-11T02:08:43.085Z,10.71
2023-04-11T02:11:10.858Z,10.74
2023-04-11T02:13:37.817Z,10.85
2023-04-11T02:16:06.980Z,10.81
2023-04-11T02:18:33.822Z,10.90
2023-04-11T02:21:02.225Z,10.77
2023-04-11T02:23:29.057Z,10.59
2023-04-11T02:25:55.951Z,10.60
2023-04-11T02:28:23.027Z,10.67
2023-04-11T02:30:53.057Z,10.72
2023-04-11T02:33:20.427Z,10.82
2023-04-11T02:38:14.758Z,10.83
2023-04-11T02:40:41.836Z,10.80
2023-04-11T02:43:08.967Z,10.89
2023-04-11T02:45:36.143Z,10.85
2023-04-11T02:48:03.106Z,10.77
2023-04-11T02:50:32.755Z,10.63
2023-04-11T02:52:59.640Z,10.41
2023-04-11T02:55:28.590Z,10.36
2023-04-11T02:57:55.602Z,10.16
2023-04-11T03:00:22.697Z,10.32
2023-04-11T03:02:57.137Z,10.39
2023-04-11T03:05:25.274Z,10.48
2023-04-11T03:07:53.887Z,10.44
2023-04-11T03:10:20.811Z,10.25
2023-04-11T03:12:47.798Z,10.17
2023-04-11T03:15:15.686Z,10.07
2023-04-11T03:17:42.753Z,10.05
2023-04-11T03:20:13.851Z,10.02
2023-04-11T03:22:46.673Z,10.10
2023-04-11T03:25:13.975Z,10.05
2023-04-11T03:27:41.884Z,10.22
2023-04-11T03:30:11.780Z,10.21
2023-04-11T03:32:42.329Z,10.27
2023-04-11T03:35:10.311Z,10.17
2023-04-11T03:37:40.643Z,10.19
2023-04-11T03:40:08.609Z,10.15
2023-04-11T03:42:38.205Z,10.08
2023-04-11T03:45:08.172Z,10.09
2023-04-11T03:47:35.901Z,10.09
2023-04-11T03:50:04.423Z,10.22
2023-04-11T03:52:38.059Z,10.33
2023-04-11T03:55:10.209Z,10.24
2023-04-11T03:57:36.993Z,10.29
2023-04-11T04:00:07.639Z,10.35
2023-04-11T04:02:42.145Z,10.39
2023-04-11T04:05:13.348Z,10.33
2023-04-11T04:07:40.867Z,10.15
2023-04-11T04:10:24.237Z,10.21
2023-04-11T04:12:54.108Z,10.16
2023-04-11T04:15:24.410Z,10.08
2023-04-11T04:17:51.905Z,10.02
2023-04-11T04:20:37.583Z,10.11
2023-04-11T04:23:04.843Z,10.13
2023-04-11T04:25:50.125Z,10.17
2023-04-11T04:28:22.416Z,10.10
2023-04-11T04:30:50.321Z,10.15
2023-04-11T04:33:19.042Z,10.14
2023-04-11T04:35:48.876Z,10.11
2023-04-11T04:38:18.142Z,10.14
2023-04-11T04:40:50.506Z,10.00
2023-04-11T04:43:25.699Z,10.02
2023-04-11T04:46:12.152Z,10.08
2023-04-11T04:48:47.916Z,10.13
2023-04-11T04:51:14.947Z,10.15
2023-04-11T04:53:41.834Z,10.13
2023-04-11T04:56:11.121Z,10.15
2023-04-11T04:58:41.298Z,10.32
2023-04-11T05:01:12.099Z,10.27
2023-04-11T05:03:39.460Z,10.14
2023-04-11T05:06:14.519Z,10.22
2023-04-11T05:08:44.923Z,10.21
2023-04-11T05:11:12.177Z,10.03
2023-04-11T05:13:39.091Z,9.85
2023-04-11T05:16:06.983Z,9.85
2023-04-11T05:18:33.943Z,9.87
2023-04-11T05:21:01.550Z,10.01
2023-04-11T05:23:34.377Z,9.98
2023-04-11T05:26:03.313Z,10.09
2023-04-11T05:28:31.963Z,10.16
2023-04-11T05:30:59.849Z,10.22
2023-04-11T05:33:27.020Z,10.30
2023-04-11T05:35:54.630Z,10.36
2023-04-11T05:38:21.433Z,10.44
2023-04-11T05:40:48.286Z,10.41
2023-04-11T05:43:15.301Z,10.58
2023-04-11T05:45:47.613Z,10.65
2023-04-11T05:48:16.513Z,10.72
2023-04-11T05:50:43.335Z,10.70
2023-04-11T05:53:10.130Z,10.64
2023-04-11T05:55:37.995Z,10.70
2023-04-11T05:58:05.146Z,10.76
2023-04-11T06:00:32.602Z,10.83
2023-04-11T06:03:00.628Z,10.92
2023-04-11T06:05:31.502Z,10.98
2023-04-11T06:07:59.623Z,11.09
2023-04-11T06:10:29.088Z,11.17
2023-04-11T06:12:56.557Z,11.25
2023-04-11T06:15:24.622Z,11.29
2023-04-11T06:17:51.567Z,11.25
2023-04-11T06:20:20.986Z,11.37
2023-04-11T06:22:51.378Z,11.38
2023-04-11T06:25:19.881Z,11.43
2023-04-11T06:27:47.795Z,11.45
2023-04-11T06:30:14.867Z,11.47
2023-04-11T06:32:42.000Z,11.46
2023-04-11T06:35:09.676Z,11.52
2023-04-11T06:37:39.537Z,11.51
2023-04-11T06:40:07.148Z,11.56
2023-04-11T06:42:34.338Z,11.59
2023-04-11T06:45:01.638Z,11.56
2023-04-11T06:47:28.514Z,11.70
2023-04-11T06:49:55.687Z,11.74
2023-04-11T06:52:22.693Z,11.70
2023-04-11T06:54:49.622Z,11.84
2023-04-11T06:57:16.395Z,11.83
2023-04-11T06:59:43.362Z,12.04
2023-04-11T07:02:10.483Z,12.12
2023-04-11T07:04:38.094Z,12.18
2023-04-11T07:07:05.305Z,12.13
2023-04-11T07:09:32.282Z,12.20
2023-04-11T07:11:59.660Z,12.31
2023-04-11T07:14:26.531Z,12.32
2023-04-11T07:16:53.312Z,12.39
2023-04-11T07:19:20.194Z,12.46
2023-04-11T07:21:47.116Z,12.52
2023-04-11T07:24:13.956Z,12.51
2023-04-11T07:26:42.425Z,12.53
2023-04-11T07:29:11.585Z,12.64
2023-04-11T07:31:40.805Z,12.70
2023-04-11T07:34:07.773Z,12.64
2023-04-11T07:36:35.003Z,12.86
2023-04-11T07:39:02.189Z,12.91
2023-04-11T07:41:29.000Z,12.92
2023-04-11T07:43:56.032Z,12.88
2023-04-11T07:46:23.027Z,12.95
2023-04-11T07:48:49.778Z,13.03
2023-04-11T07:51:17.283Z,13.02
2023-04-11T07:53:44.026Z,13.03
2023-04-11T07:56:11.360Z,13.01
2023-04-11T07:58:40.939Z,12.99
2023-04-11T08:01:19.734Z,13.01
2023-04-11T08:03:46.619Z,13.08
2023-04-11T08:06:13.462Z,13.13
2023-04-11T08:08:40.202Z,13.13
2023-04-11T08:11:07.172Z,13.17
2023-04-11T08:13:33.967Z,13.19
2023-04-11T08:16:00.630Z,13.23
2023-04-11T08:18:27.372Z,13.28
2023-04-11T08:20:54.045Z,13.24
2023-04-11T08:23:21.790Z,13.23
2023-04-11T08:25:48.519Z,13.29
2023-04-11T08:28:15.583Z,13.32
2023-04-11T08:30:42.538Z,13.36
2023-04-11T08:33:10.193Z,13.36
2023-04-11T08:35:37.774Z,13.33
2023-04-11T08:38:04.608Z,13.31
2023-04-11T08:40:31.564Z,13.39
2023-04-11T08:42:59.950Z,13.38
2023-04-11T08:45:27.315Z,13.48
2023-04-11T08:47:54.389Z,13.57
2023-04-11T08:50:21.346Z,13.62
2023-04-11T08:52:49.841Z,13.65
2023-04-11T08:55:16.654Z,13.62
2023-04-11T08:57:43.367Z,13.61
2023-04-11T09:00:19.184Z,13.58
2023-04-11T09:03:02.689Z,13.61
2023-04-11T09:05:33.398Z,13.61
2023-04-11T09:08:06.311Z,13.52
2023-04-11T09:10:33.297Z,13.62
2023-04-11T09:13:00.472Z,13.72
2023-04-11T09:15:29.527Z,13.85
2023-04-11T09:18:00.289Z,13.88
2023-04-11T09:20:31.206Z,13.90
2023-04-11T09:23:01.378Z,13.98
2023-04-11T09:25:28.300Z,14.03
2023-04-11T09:28:09.613Z,14.21
2023-04-11T09:30:37.267Z,14.22
2023-04-11T09:33:25.227Z,14.23
2023-04-11T09:35:54.815Z,14.14
2023-04-11T09:38:33.226Z,14.08
2023-04-11T09:41:02.014Z,14.31
2023-04-11T09:43:52.089Z,14.25
2023-04-11T09:46:21.529Z,14.34
2023-04-11T09:48:49.448Z,14.27
2023-04-11T09:51:34.338Z,14.30
2023-04-11T09:54:03.602Z,14.39
2023-04-11T09:56:31.981Z,14.53
2023-04-11T09:59:01.268Z,14.54
2023-04-11T10:01:29.570Z,14.49
2023-04-11T10:03:57.339Z,14.49
2023-04-11T10:06:39.048Z,14.55
2023-04-11T10:09:11.653Z,14.56
2023-04-11T10:11:47.842Z,14.48
2023-04-11T10:14:39.972Z,14.46
2023-04-11T10:17:22.679Z,14.44
2023-04-11T10:19:56.722Z,14.37
2023-04-11T10:22:43.338Z,14.39
2023-04-11T10:25:21.720Z,14.31
2023-04-11T10:27:53.795Z,14.30
2023-04-11T10:30:46.828Z,14.27
2023-04-11T10:33:15.828Z,14.29
2023-04-11T10:36:12.647Z,14.24
2023-04-11T10:38:48.937Z,14.19
2023-04-11T10:41:34.365Z,14.21
2023-04-11T10:44:24.945Z,14.16
2023-04-11T10:46:55.984Z,14.13
2023-04-11T10:49:43.604Z,14.23
2023-04-11T10:52:24.852Z,14.21
2023-04-11T10:54:53.260Z,14.25
2023-04-11T10:57:21.843Z,14.20
2023-04-11T10:59:51.524Z,14.15
2023-04-11T11:02:19.878Z,14.11
2023-04-11T11:04:47.463Z,14.17
2023-04-11T11:07:18.214Z,14.12
2023-04-11T11:09:49.641Z,14.07
2023-04-11T11:12:17.481Z,14.08
2023-04-11T11:14:46.302Z,14.06
2023-04-11T11:17:14.447Z,14.14
2023-04-11T11:19:45.395Z,14.14
2023-04-11T11:22:18.723Z,14.11
2023-04-11T11:24:45.776Z,14.07
2023-04-11T11:27:23.582Z,14.07
2023-04-11T11:29:51.228Z,14.17
2023-04-11T11:32:28.385Z,14.17
2023-04-11T11:34:58.023Z,14.17
2023-04-11T11:37:25.141Z,14.17
2023-04-11T11:39:52.304Z,14.15
2023-04-11T11:42:19.242Z,14.10
2023-04-11T11:44:46.344Z,14.05
2023-04-11T11:47:16.894Z,14.05
2023-04-11T11:49:56.148Z,14.05
2023-04-11T11:52:36.974Z,14.03
2023-04-11T11:55:08.088Z,13.97
2023-04-11T11:57:37.584Z,13.94
2023-04-11T12:00:10.446Z,13.93
2023-04-11T12:02:39.543Z,13.93
2023-04-11T12:05:07.870Z,13.85
2023-04-11T12:07:37.568Z,13.82
2023-04-11T12:10:08.414Z,13.83
2023-04-11T12:12:36.919Z,13.83
2023-04-11T12:15:24.668Z,13.84
2023-04-11T12:17:53.580Z,13.84
2023-04-11T12:20:25.121Z,13.80
2023-04-11T12:22:53.750Z,13.78
2023-04-11T12:25:22.325Z,13.79
2023-04-11T12:27:49.130Z,13.86
2023-04-11T12:30:16.098Z,13.87
2023-04-11T12:32:43.993Z,13.91
2023-04-11T12:35:11.881Z,13.88
2023-04-11T12:37:38.958Z,13.88
2023-04-11T12:40:12.309Z,13.98
2023-04-11T12:45:14.858Z,14.00
2023-04-11T12:47:41.962Z,14.01
2023-04-11T12:50:10.366Z,13.97
2023-04-11T12:52:38.071Z,13.81
2023-04-11T12:55:05.896Z,13.89
2023-04-11T12:57:33.073Z,13.91
2023-04-11T13:00:00.253Z,13.82
2023-04-11T13:02:29.347Z,13.90
2023-04-11T13:04:59.639Z,13.88
2023-04-11T13:07:26.638Z,13.91
2023-04-11T13:09:56.322Z,13.91
2023-04-11T13:12:23.396Z,13.96
2023-04-11T13:14:50.807Z,13.89
2023-04-11T13:17:17.788Z,13.94
2023-04-11T13:19:44.562Z,14.04
2023-04-11T13:22:11.614Z,14.07
2023-04-11T13:24:38.775Z,14.06
2023-04-11T13:27:06.089Z,14.08
2023-04-11T13:29:32.944Z,14.07
2023-04-11T13:31:59.901Z,14.03
2023-04-11T13:34:27.470Z,13.95
2023-04-11T13:36:54.402Z,14.00
2023-04-11T13:39:21.285Z,13.98
2023-04-11T13:41:48.310Z,13.91
2023-04-11T13:44:15.202Z,13.92
2023-04-11T13:46:41.974Z,13.98
2023-04-11T13:49:08.724Z,13.98
2023-04-11T13:51:35.822Z,14.06
2023-04-11T13:54:02.628Z,14.03
2023-04-11T13:56:29.978Z,14.02
2023-04-11T13:58:57.060Z,14.01
2023-04-11T14:01:24.061Z,13.84
2023-04-11T14:03:51.254Z,13.89
2023-04-11T14:06:19.699Z,13.92
2023-04-11T14:08:48.169Z,13.99
2023-04-11T14:11:17.173Z,13.90
2023-04-11T14:13:44.163Z,13.85
2023-04-11T14:16:11.469Z,13.73
2023-04-11T14:18:38.332Z,13.68
2023-04-11T14:21:06.240Z,13.76
2023-04-11T14:23:34.048Z,13.67
2023-04-11T14:26:01.441Z,13.60
2023-04-11T14:28:28.469Z,13.66
2023-04-11T14:30:56.748Z,13.66
2023-04-11T14:33:23.822Z,13.64
2023-04-11T14:35:51.248Z,13.66
2023-04-11T14:38:18.097Z,13.63
2023-04-11T14:40:45.106Z,13.63
2023-04-11T14:43:12.049Z,13.61
2023-04-11T14:45:39.081Z,13.55
2023-04-11T14:48:06.106Z,13.56
2023-04-11T14:50:32.992Z,13.54
2023-04-11T14:52:59.811Z,13.55
2023-04-11T14:55:26.907Z,13.48
2023-04-11T14:57:55.864Z,13.50
2023-04-11T15:00:25.152Z,13.46
2023-04-11T15:02:54.866Z,13.42
2023-04-11T15:05:22.831Z,13.38
2023-04-11T15:07:51.643Z,13.38
2023-04-11T15:10:21.665Z,13.32
2023-04-11T15:12:48.716Z,13.21
2023-04-11T15:15:16.057Z,13.17
2023-04-11T15:17:46.586Z,13.19
2023-04-11T15:20:14.931Z,13.15
2023-04-11T15:22:43.742Z,13.21
2023-04-11T15:25:13.573Z,13.27
2023-04-11T15:27:41.820Z,13.31
2023-04-11T15:30:11.787Z,13.28
2023-04-11T15:32:44.018Z,13.33
2023-04-11T15:35:12.116Z,13.36
2023-04-11T15:37:39.215Z,13.39
2023-04-11T15:40:06.675Z,13.40
2023-04-11T15:42:35.665Z,13.42
2023-04-11T15:45:02.908Z,13.46
2023-04-11T15:47:30.714Z,13.48
2023-04-11T15:49:59.930Z,13.51
2023-04-11T15:52:27.159Z,13.53
2023-04-11T15:54:54.128Z,13.52
2023-04-11T15:57:21.105Z,13.48
2023-04-11T15:59:48.542Z,13.58
2023-04-11T16:02:15.696Z,13.55
2023-04-11T16:04:44.742Z,13.63
2023-04-11T16:07:14.079Z,13.69
2023-04-11T16:09:40.890Z,13.77
2023-04-11T16:12:07.737Z,13.74
2023-04-11T16:14:34.785Z,13.67
2023-04-11T16:17:01.608Z,13.66
2023-04-11T16:19:28.503Z,13.59
2023-04-11T16:21:55.488Z,13.55
2023-04-11T16:24:22.414Z,13.56
2023-04-11T16:26:49.210Z,13.59
2023-04-11T16:29:16.100Z,13.57
2023-04-11T16:31:43.059Z,13.61
2023-04-11T16:34:09.858Z,13.58
2023-04-11T16:36:36.674Z,13.61
2023-04-11T16:39:04.356Z,13.62
2023-04-11T16:41:32.003Z,13.63
2023-04-11T16:43:58.933Z,13.65
2023-04-11T16:46:25.868Z,13.68
2023-04-11T16:48:52.603Z,13.70
2023-04-11T16:51:21.402Z,13.71
2023-04-11T16:53:49.666Z,13.71
2023-04-11T16:56:19.836Z,13.75
2023-04-11T16:58:46.811Z,13.76
2023-04-11T17:01:13.906Z,13.73
2023-04-11T17:03:42.313Z,13.73
2023-04-11T17:06:16.468Z,13.73
2023-04-11T17:08:44.472Z,13.76
2023-04-11T17:11:11.598Z,13.72
2023-04-11T17:13:38.834Z,13.73
2023-04-11T17:16:07.972Z,13.76
2023-04-11T17:18:34.945Z,13.77
2023-04-11T17:21:01.750Z,13.77
2023-04-11T17:23:41.291Z,13.77
2023-04-11T17:26:09.988Z,13.75
2023-04-11T17:28:36.858Z,13.71
2023-04-11T17:31:12.967Z,13.67
2023-04-11T17:33:40.878Z,13.69
2023-04-11T17:36:08.897Z,13.62
2023-04-11T17:38:37.655Z,13.59
2023-04-11T17:41:14.557Z,13.51
2023-04-11T17:43:43.678Z,13.54
2023-04-11T17:46:10.706Z,13.59
2023-04-11T17:48:37.856Z,13.50
2023-04-11T17:51:05.849Z,13.58
2023-04-11T17:53:35.289Z,13.49
2023-04-11T17:56:06.180Z,13.61
2023-04-11T17:58:33.773Z,13.60
2023-04-11T18:01:00.750Z,13.64
2023-04-11T18:03:28.344Z,13.62
2023-04-11T18:05:55.651Z,13.57
2023-04-11T18:08:35.453Z,13.57
2023-04-11T18:11:09.973Z,13.58
2023-04-11T18:13:36.815Z,13.60
2023-04-11T18:16:04.321Z,13.58
2023-04-11T18:18:31.477Z,13.62
2023-04-11T18:21:07.117Z,13.59
2023-04-11T18:23:34.778Z,13.52
2023-04-11T18:26:01.611Z,13.55
2023-04-11T18:28:28.937Z,13.55
2023-04-11T18:30:55.789Z,13.63
2023-04-11T18:33:22.794Z,13.61
2023-04-11T18:35:49.664Z,13.55
2023-04-11T18:38:16.625Z,13.58
2023-04-11T18:40:43.674Z,13.60
2023-04-11T18:43:10.870Z,13.50
2023-04-11T18:45:39.299Z,13.61
2023-04-11T18:48:07.072Z,13.60
2023-04-11T18:50:39.064Z,13.60
2023-04-11T18:53:10.169Z,13.51
2023-04-11T18:55:40.185Z,13.50
2023-04-11T18:58:09.127Z,13.62
2023-04-11T19:00:36.776Z,13.53
2023-04-11T19:03:05.254Z,13.61
2023-04-11T19:05:34.924Z,13.62
2023-04-11T19:08:01.991Z,13.58
2023-04-11T19:10:28.967Z,13.61
2023-04-11T19:12:56.246Z,13.61
2023-04-11T19:15:23.235Z,13.59
2023-04-11T19:17:50.489Z,13.57
2023-04-11T19:20:19.106Z,13.55
2023-04-11T19:22:46.645Z,13.50
2023-04-11T19:25:14.769Z,13.61
2023-04-11T19:27:42.547Z,13.48
2023-04-11T19:30:13.753Z,13.41
2023-04-11T19:32:43.590Z,13.36
2023-04-11T19:35:11.731Z,13.36
2023-04-11T19:37:39.444Z,13.38
2023-04-11T19:40:07.429Z,13.38
2023-04-11T19:42:40.383Z,13.41
2023-04-11T19:45:09.334Z,13.45
2023-04-11T19:47:36.419Z,13.47
2023-04-11T19:50:03.368Z,13.48
2023-04-11T19:52:30.088Z,13.49
2023-04-11T19:54:57.114Z,13.56
2023-04-11T19:57:27.622Z,13.43
2023-04-11T19:59:54.728Z,13.47
2023-04-11T20:02:21.891Z,13.52
2023-04-11T20:04:49.632Z,13.52
2023-04-11T20:07:16.734Z,13.53
2023-04-11T20:09:44.174Z,13.51
2023-04-11T20:12:11.310Z,13.44
2023-04-11T20:14:38.582Z,13.43
2023-04-11T20:17:06.172Z,13.45
2023-04-11T20:19:33.299Z,13.42
2023-04-11T20:22:01.238Z,13.49
2023-04-11T20:24:28.278Z,13.47
2023-04-11T20:26:57.127Z,13.47
2023-04-11T20:29:32.998Z,13.46
2023-04-11T20:32:00.116Z,13.46
2023-04-11T20:34:26.950Z,13.47
2023-04-11T20:36:54.003Z,13.46
2023-04-11T20:39:20.879Z,13.45
2023-04-11T20:41:50.030Z,13.46
2023-04-11T20:44:23.972Z,13.43
2023-04-11T20:46:54.390Z,13.44
2023-04-11T20:49:33.251Z,13.43
2023-04-11T20:52:00.173Z,13.43
2023-04-11T20:54:27.679Z,13.44
2023-04-11T20:56:56.144Z,13.44
2023-04-11T20:59:23.071Z,13.46
2023-04-11T21:01:50.382Z,13.49
2023-04-11T21:04:18.814Z,13.49
2023-04-11T21:06:46.053Z,13.50
2023-04-11T21:09:13.014Z,13.51
2023-04-11T21:11:40.091Z,13.53
2023-04-11T21:14:06.919Z,13.53
2023-04-11T21:16:34.407Z,13.53
2023-04-11T21:19:01.388Z,13.54
2023-04-11T21:21:28.408Z,13.52
2023-04-11T21:23:55.626Z,13.48
2023-04-11T21:26:23.637Z,13.46
2023-04-11T21:28:50.362Z,13.45
2023-04-11T21:31:17.575Z,13.44
2023-04-11T21:33:46.852Z,13.43
2023-04-11T21:36:13.930Z,13.42
2023-04-11T21:38:41.309Z,13.42
2023-04-11T21:41:08.411Z,13.40
2023-04-11T21:43:35.244Z,13.41
2023-04-11T21:46:02.109Z,13.40
2023-04-11T21:48:28.956Z,13.42
2023-04-11T21:50:55.796Z,13.43
2023-04-11T21:53:22.607Z,13.43
2023-04-11T21:55:49.410Z,13.44
2023-04-11T21:58:28.651Z,13.44
2023-04-11T22:00:56.780Z,13.47
2023-04-11T22:03:24.161Z,13.44
2023-04-11T22:05:52.557Z,13.45
2023-04-11T22:08:22.430Z,13.45
2023-04-11T22:10:50.960Z,13.44
2023-04-11T22:13:19.676Z,13.46
2023-04-11T22:15:49.042Z,13.45
2023-04-11T22:18:15.979Z,13.43
2023-04-11T22:20:44.211Z,13.46
2023-04-11T22:23:12.787Z,13.46
2023-04-11T22:25:42.834Z,13.44
2023-04-11T22:28:20.560Z,13.43
2023-04-11T22:30:47.384Z,13.40
2023-04-11T22:33:14.353Z,13.40
2023-04-11T22:35:44.077Z,13.41
2023-04-11T22:38:11.648Z,13.39
2023-04-11T22:40:41.446Z,13.38
2023-04-11T22:43:09.957Z,13.37
2023-04-11T22:45:40.275Z,13.35
2023-04-11T22:48:07.238Z,13.35
2023-04-11T22:50:38.079Z,13.37
2023-04-11T22:53:05.146Z,13.34
2023-04-11T22:55:35.623Z,13.36
2023-04-11T22:58:03.074Z,13.37
2023-04-11T23:00:30.061Z,13.35
2023-04-11T23:02:59.636Z,13.40
2023-04-11T23:05:26.713Z,13.42
2023-04-11T23:07:53.727Z,13.42
2023-04-11T23:10:20.531Z,13.42
2023-04-11T23:12:48.073Z,13.40
2023-04-11T23:15:14.921Z,13.43
2023-04-11T23:17:41.763Z,13.44
2023-04-11T23:20:11.254Z,13.43
2023-04-11T23:22:38.822Z,13.46
2023-04-11T23:25:06.743Z,13.45
2023-04-11T23:27:33.470Z,13.45
2023-04-11T23:30:00.824Z,13.46
2023-04-11T23:32:28.000Z,13.44
2023-04-11T23:34:54.703Z,13.43
2023-04-11T23:37:21.535Z,13.38
2023-04-11T23:39:49.000Z,13.31
2023-04-11T23:42:15.858Z,13.21
2023-04-11T23:44:42.508Z,13.20
2023-04-11T23:47:09.359Z,13.22
2023-04-11T23:49:36.192Z,13.25
2023-04-11T23:52:03.094Z,13.26
2023-04-11T23:54:30.485Z,13.31
2023-04-11T23:56:58.600Z,13.33
2023-04-11T23:59:25.645Z,13.35
